Time;durP1;ratioP1;P1;durP2;ratioP2;P2;SDS_P1;SDS_P2;PMS_P1;PMS_P2;Temp;Humidity;BMP_temperature;BMP_pressure;BME280_temperature;BME280_humidity;BME280_pressure;Samples;Min_cycle;Max_cycle;Signal;HPM_P1;HPM_P2
2022/03/19 00:00:45;;;;;;;100.00;35.40;;;6.30;99.70;;;;;;5034973;28;20455;-62
2022/03/19 00:03:11;;;;;;;97.77;35.80;;;6.20;99.70;;;;;;5034561;28;20472;-60
2022/03/19 00:05:38;;;;;;;96.87;34.13;;;6.20;99.70;;;;;;5034237;28;20799;-62
2022/03/19 00:08:05;;;;;;;105.73;34.10;;;6.20;99.70;;;;;;5034321;28;20932;-63
2022/03/19 00:10:33;;;;;;;97.60;36.10;;;6.30;99.70;;;;;;5034523;28;20871;-63
2022/03/19 00:13:00;;;;;;;100.33;35.97;;;6.30;99.70;;;;;;5034291;28;20465;-63
2022/03/19 00:15:28;;;;;;;93.53;35.00;;;6.20;99.70;;;;;;5034175;28;20441;-61
2022/03/19 00:17:57;;;;;;;104.47;35.20;;;6.20;99.70;;;;;;5034340;28;20541;-60
2022/03/19 00:20:24;;;;;;;96.43;34.37;;;6.20;99.70;;;;;;5034401;28;20452;-63
2022/03/19 00:22:50;;;;;;;90.77;34.10;;;6.20;99.70;;;;;;5034057;28;20479;-61
2022/03/19 00:25:17;;;;;;;104.33;35.90;;;6.20;99.70;;;;;;5033900;28;20489;-61
2022/03/19 00:27:45;;;;;;;99.37;34.70;;;6.10;99.70;;;;;;5033912;28;20509;-63
2022/03/19 00:30:12;;;;;;;87.87;33.00;;;6.20;99.70;;;;;;5033933;28;20956;-62
2022/03/19 00:32:39;;;;;;;98.03;35.53;;;6.20;99.70;;;;;;5033811;28;20475;-60
2022/03/19 00:35:08;;;;;;;93.00;33.93;;;6.00;99.70;;;;;;5033730;28;20558;-62
2022/03/19 00:37:43;;;;;;;94.87;34.37;;;6.00;99.70;;;;;;5033881;28;20835;-62
2022/03/19 00:40:11;;;;;;;100.40;35.03;;;6.00;99.70;;;;;;5033849;28;20475;-62
2022/03/19 00:42:38;;;;;;;99.83;34.83;;;6.00;99.70;;;;;;5033899;28;20514;-61
2022/03/19 00:45:08;;;;;;;93.30;33.50;;;6.00;99.70;;;;;;5032773;28;20969;-61
2022/03/19 00:47:34;;;;;;;97.53;34.03;;;6.00;99.70;;;;;;5033674;28;20483;-60
2022/03/19 00:50:01;;;;;;;92.40;33.13;;;5.90;99.70;;;;;;5033810;28;20444;-63
2022/03/19 00:52:28;;;;;;;99.13;34.80;;;5.90;99.70;;;;;;5033852;28;20472;-62
2022/03/19 00:54:55;;;;;;;96.27;34.30;;;5.90;99.70;;;;;;5033218;28;20468;-60
2022/03/19 00:57:21;;;;;;;90.47;33.53;;;5.80;99.70;;;;;;5033579;28;20444;-61
2022/03/19 00:59:48;;;;;;;90.80;33.90;;;5.90;99.70;;;;;;5032385;28;20864;-62
2022/03/19 01:02:17;;;;;;;98.00;35.53;;;5.90;99.70;;;;;;5033498;28;20455;-62
2022/03/19 01:04:43;;;;;;;96.87;33.80;;;5.80;99.70;;;;;;5033403;28;20952;-61
2022/03/19 01:07:10;;;;;;;93.37;34.07;;;5.90;99.70;;;;;;5033018;28;20480;-60
2022/03/19 01:09:37;;;;;;;86.67;32.00;;;5.90;99.70;;;;;;5033248;28;20447;-61
2022/03/19 01:12:05;;;;;;;97.70;33.70;;;5.90;99.70;;;;;;5033171;28;20453;-59
2022/03/19 01:14:32;;;;;;;91.00;33.53;;;5.80;99.70;;;;;;5033090;28;20556;-62
2022/03/19 01:16:58;;;;;;;88.47;33.10;;;5.80;99.70;;;;;;5033020;28;20448;-61
2022/03/19 01:22:07;;;;;;;88.80;31.77;;;5.80;99.70;;;;;;5032331;28;20428;-60
2022/03/19 01:24:34;;;;;;;95.07;34.17;;;5.80;99.70;;;;;;5032893;28;20472;-61
2022/03/19 01:27:00;;;;;;;91.83;33.00;;;5.80;99.70;;;;;;5032588;28;20487;-61
2022/03/19 01:29:27;;;;;;;87.00;31.83;;;5.80;99.70;;;;;;5032842;28;20440;-62
2022/03/19 01:31:54;;;;;;;88.23;31.80;;;5.80;99.70;;;;;;5033098;28;20514;-62
2022/03/19 01:34:20;;;;;;;89.83;31.97;;;5.80;99.70;;;;;;5032878;28;20468;-62
2022/03/19 01:36:48;;;;;;;84.90;32.60;;;5.70;99.70;;;;;;5032760;28;20437;-60
2022/03/19 01:39:15;;;;;;;90.20;30.77;;;5.70;99.70;;;;;;5032581;28;20440;-61
2022/03/19 01:41:42;;;;;;;89.93;33.07;;;5.70;99.70;;;;;;5032768;28;20448;-57
2022/03/19 01:44:09;;;;;;;86.97;30.87;;;5.70;99.70;;;;;;5032385;28;20891;-62
2022/03/19 01:46:54;;;;;;;88.40;30.60;;;5.70;99.70;;;;;;5032325;28;20534;-62
2022/03/19 01:49:20;;;;;;;98.90;32.70;;;5.70;99.70;;;;;;5032573;28;20450;-61
2022/03/19 01:51:48;;;;;;;91.00;31.57;;;5.70;99.70;;;;;;5032715;28;20463;-64
2022/03/19 01:54:16;;;;;;;89.30;31.80;;;5.70;99.70;;;;;;5032460;28;21027;-65
2022/03/19 01:56:45;;;;;;;89.63;29.90;;;5.80;99.70;;;;;;5032410;28;20437;-63
2022/03/19 01:59:13;;;;;;;89.70;31.20;;;5.80;99.70;;;;;;5032528;28;20444;-63
2022/03/19 02:01:41;;;;;;;88.50;31.70;;;5.70;99.70;;;;;;5032458;28;20449;-63
2022/03/19 02:04:09;;;;;;;84.03;29.90;;;5.70;99.70;;;;;;5032299;28;20468;-61
2022/03/19 02:06:36;;;;;;;80.80;29.47;;;5.70;99.70;;;;;;5031960;28;20516;-62
2022/03/19 02:09:04;;;;;;;89.83;31.83;;;5.60;99.70;;;;;;5032228;28;20452;-61
2022/03/19 02:11:31;;;;;;;84.77;31.90;;;5.60;99.70;;;;;;5032129;28;20559;-61
2022/03/19 02:13:58;;;;;;;83.40;31.00;;;5.60;99.70;;;;;;5032080;28;20465;-62
2022/03/19 02:16:25;;;;;;;85.33;30.70;;;5.60;99.70;;;;;;5031823;28;20445;-64
2022/03/19 02:18:52;;;;;;;88.80;31.43;;;5.60;99.70;;;;;;5031924;28;20527;-61
2022/03/19 02:21:18;;;;;;;85.60;31.27;;;5.60;99.70;;;;;;5032072;28;20437;-59
2022/03/19 02:26:48;;;;;;;88.90;30.57;;;5.60;99.70;;;;;;4995790;28;20479;-61
2022/03/19 02:29:15;;;;;;;87.30;30.90;;;5.60;99.70;;;;;;5031786;28;20444;-61
2022/03/19 02:31:44;;;;;;;79.73;29.30;;;5.60;99.70;;;;;;5031928;28;20456;-63
2022/03/19 02:34:11;;;;;;;84.13;30.73;;;5.60;99.70;;;;;;5031819;28;20504;-62
2022/03/19 02:36:40;;;;;;;80.50;30.10;;;5.50;99.70;;;;;;5031500;28;20516;-62
2022/03/19 02:39:12;;;;;;;80.57;30.70;;;5.50;99.70;;;;;;5031683;28;20456;-60
2022/03/19 02:41:43;;;;;;;77.60;28.60;;;5.50;99.70;;;;;;5031520;28;20452;-60
2022/03/19 02:44:10;;;;;;;93.17;31.27;;;5.50;99.70;;;;;;5031175;28;20548;-61
2022/03/19 02:46:41;;;;;;;78.70;29.90;;;5.50;99.70;;;;;;5031389;28;21035;-63
2022/03/19 02:49:08;;;;;;;85.30;30.63;;;5.50;99.70;;;;;;5031386;28;20440;-61
2022/03/19 02:51:36;;;;;;;82.63;31.03;;;5.50;99.70;;;;;;5031512;28;20444;-62
2022/03/19 02:54:07;;;;;;;76.77;30.10;;;5.50;99.70;;;;;;5031347;28;20468;-62
2022/03/19 02:56:37;;;;;;;76.23;28.37;;;5.50;99.70;;;;;;5031232;28;20449;-62
2022/03/19 02:59:07;;;;;;;80.27;31.13;;;5.40;99.70;;;;;;5031233;28;20518;-62
2022/03/19 03:01:34;;;;;;;85.77;31.33;;;5.40;99.70;;;;;;5031295;28;20444;-62
2022/03/19 03:04:01;;;;;;;89.97;30.83;;;5.40;99.70;;;;;;5031244;28;20555;-61
2022/03/19 03:06:28;;;;;;;84.80;30.50;;;5.40;99.70;;;;;;5030968;28;20508;-61
2022/03/19 03:08:56;;;;;;;87.97;30.73;;;5.30;99.70;;;;;;5031092;28;20979;-61
2022/03/19 03:11:22;;;;;;;78.87;30.10;;;5.30;99.70;;;;;;5031242;28;20444;-61
2022/03/19 03:13:51;;;;;;;81.87;29.90;;;5.30;99.70;;;;;;5031225;28;20463;-59
2022/03/19 03:16:18;;;;;;;82.47;30.43;;;5.30;99.70;;;;;;5030848;28;20457;-62
2022/03/19 03:18:45;;;;;;;74.23;29.17;;;5.30;99.70;;;;;;5031353;28;20444;-65
2022/03/19 03:21:11;;;;;;;73.30;28.80;;;5.40;99.70;;;;;;5031301;28;20456;-62
2022/03/19 03:23:38;;;;;;;82.37;30.50;;;5.30;99.70;;;;;;5030736;28;20480;-62
2022/03/19 03:26:05;;;;;;;88.47;30.70;;;5.30;99.70;;;;;;5030942;28;20509;-63
2022/03/19 03:28:32;;;;;;;78.20;30.50;;;5.30;99.70;;;;;;5031014;28;20444;-64
2022/03/19 03:31:00;;;;;;;79.93;30.70;;;5.30;99.70;;;;;;5031195;28;20448;-63
2022/03/19 03:33:26;;;;;;;79.67;30.90;;;5.30;99.70;;;;;;5031123;28;20471;-62
2022/03/19 03:35:53;;;;;;;81.83;30.40;;;5.20;99.70;;;;;;5031068;28;20452;-64
2022/03/19 03:38:20;;;;;;;79.40;29.77;;;5.20;99.70;;;;;;5030706;28;20440;-63
2022/03/19 03:40:47;;;;;;;76.13;29.70;;;5.30;99.70;;;;;;5031008;28;20475;-65
2022/03/19 03:43:13;;;;;;;79.63;30.57;;;5.20;99.70;;;;;;5030991;28;20476;-65
2022/03/19 03:45:40;;;;;;;80.27;29.90;;;5.10;99.70;;;;;;5030300;28;20440;-65
2022/03/19 03:48:09;;;;;;;82.47;30.77;;;5.20;99.70;;;;;;5031058;28;20998;-62
2022/03/19 03:50:36;;;;;;;77.30;29.87;;;5.20;99.70;;;;;;5031140;28;20830;-63
2022/03/19 03:53:05;;;;;;;82.07;30.20;;;5.20;99.70;;;;;;5031047;28;20968;-63
2022/03/19 03:55:33;;;;;;;74.90;28.60;;;5.10;99.70;;;;;;5030761;28;20449;-63
2022/03/19 03:58:01;;;;;;;80.50;30.27;;;5.00;99.70;;;;;;5031095;28;20441;-63
2022/03/19 04:00:28;;;;;;;74.53;28.77;;;5.10;99.70;;;;;;5030980;28;20471;-63
2022/03/19 04:02:55;;;;;;;79.80;29.37;;;5.00;99.70;;;;;;5030644;28;20464;-63
2022/03/19 04:05:23;;;;;;;76.57;28.50;;;5.00;99.70;;;;;;5030286;28;20440;-65
2022/03/19 04:07:50;;;;;;;78.43;28.80;;;5.10;99.70;;;;;;5030571;28;20476;-64
2022/03/19 04:10:17;;;;;;;79.70;29.20;;;5.20;99.70;;;;;;5030740;28;20444;-63
2022/03/19 04:12:44;;;;;;;83.00;29.03;;;5.20;99.70;;;;;;5030511;28;20967;-64
2022/03/19 04:15:12;;;;;;;83.37;29.90;;;5.20;99.70;;;;;;5030390;28;20503;-62
2022/03/19 04:17:40;;;;;;;81.03;29.23;;;5.10;99.70;;;;;;5030577;28;20471;-63
2022/03/19 04:20:08;;;;;;;79.43;30.20;;;5.00;99.70;;;;;;5030361;28;20452;-63
2022/03/19 04:22:37;;;;;;;79.07;29.47;;;5.00;99.70;;;;;;5030348;28;20444;-63
2022/03/19 04:25:05;;;;;;;84.37;30.40;;;5.10;99.70;;;;;;5030288;28;20917;-62
2022/03/19 04:27:31;;;;;;;83.87;30.10;;;5.00;99.70;;;;;;5030309;28;20484;-64
2022/03/19 04:29:58;;;;;;;76.93;29.03;;;5.00;99.70;;;;;;5031577;28;20453;-62
2022/03/19 04:32:25;;;;;;;82.37;29.13;;;5.00;99.70;;;;;;5030362;28;20440;-62
2022/03/19 04:34:51;;;;;;;78.27;28.97;;;4.90;99.70;;;;;;5031342;28;20476;-65
2022/03/19 04:37:18;;;;;;;78.23;30.57;;;4.90;99.70;;;;;;5033949;28;20448;-64
2022/03/19 04:39:46;;;;;;;78.90;29.77;;;5.00;99.70;;;;;;5033766;28;20449;-63
2022/03/19 04:42:13;;;;;;;73.67;27.87;;;4.90;99.70;;;;;;5033991;28;20452;-64
2022/03/19 04:44:40;;;;;;;81.27;29.60;;;4.90;99.70;;;;;;5033473;28;20471;-62
2022/03/19 04:47:07;;;;;;;75.50;29.73;;;5.00;99.70;;;;;;5033537;28;20484;-63
2022/03/19 04:49:33;;;;;;;80.20;30.03;;;5.00;99.70;;;;;;5033578;28;20471;-63
2022/03/19 04:52:00;;;;;;;75.20;29.40;;;4.90;99.70;;;;;;5033854;28;20856;-63
2022/03/19 04:54:27;;;;;;;77.53;28.43;;;4.90;99.70;;;;;;5033666;28;20522;-61
2022/03/19 04:56:55;;;;;;;77.60;28.40;;;4.80;99.70;;;;;;5033428;28;20448;-60
2022/03/19 04:59:22;;;;;;;75.10;29.13;;;4.80;99.70;;;;;;5033411;28;20440;-62
2022/03/19 05:01:48;;;;;;;79.57;30.63;;;4.80;99.70;;;;;;5033626;28;20445;-63
2022/03/19 05:04:15;;;;;;;72.07;28.93;;;4.80;99.70;;;;;;5033322;28;20467;-64
2022/03/19 05:06:42;;;;;;;70.93;28.13;;;4.90;99.70;;;;;;5033050;28;20452;-60
2022/03/19 05:11:54;;;;;;;68.47;27.40;;;4.80;99.70;;;;;;5033547;28;20427;-58
2022/03/19 05:14:21;;;;;;;76.10;28.93;;;4.90;99.70;;;;;;5033162;28;20472;-64
2022/03/19 05:16:47;;;;;;;72.83;27.40;;;4.90;99.70;;;;;;5032986;28;20451;-63
2022/03/19 05:19:14;;;;;;;79.83;29.77;;;4.90;99.70;;;;;;5032903;28;20445;-64
2022/03/19 05:21:41;;;;;;;74.20;29.37;;;4.90;99.70;;;;;;5033058;28;20441;-63
2022/03/19 05:24:07;;;;;;;71.93;27.87;;;4.90;99.70;;;;;;5032969;28;20506;-63
2022/03/19 05:26:35;;;;;;;75.60;27.77;;;5.00;99.70;;;;;;5032856;28;20503;-61
2022/03/19 05:29:03;;;;;;;72.80;28.17;;;4.80;99.70;;;;;;5032615;28;20492;-61
2022/03/19 05:31:30;;;;;;;74.17;28.47;;;4.80;99.70;;;;;;5032767;28;20451;-61
2022/03/19 05:36:42;;;;;;;80.97;28.50;;;4.80;99.70;;;;;;5032388;28;20495;-63
2022/03/19 05:39:08;;;;;;;84.40;28.07;;;4.70;99.70;;;;;;5032597;28;20441;-64
2022/03/19 05:41:35;;;;;;;77.17;28.53;;;4.80;99.70;;;;;;5032592;28;20452;-62
2022/03/19 05:44:04;;;;;;;68.10;27.70;;;4.70;99.70;;;;;;5032109;28;20468;-64
2022/03/19 05:46:30;;;;;;;78.37;30.23;;;4.70;99.70;;;;;;5031851;28;20451;-63
2022/03/19 05:48:57;;;;;;;70.70;26.43;;;4.80;99.70;;;;;;5032387;28;20477;-62
2022/03/19 05:51:24;;;;;;;74.93;28.20;;;4.80;99.70;;;;;;5032498;28;20441;-66
2022/03/19 05:53:50;;;;;;;72.20;27.77;;;4.70;99.70;;;;;;5032402;28;20468;-63
2022/03/19 05:56:18;;;;;;;72.90;27.13;;;4.70;99.70;;;;;;5032112;28;20445;-63
2022/03/19 05:58:44;;;;;;;72.27;27.47;;;4.70;99.70;;;;;;5032270;28;20539;-62
2022/03/19 06:01:12;;;;;;;70.60;26.40;;;4.50;99.70;;;;;;5032455;28;20869;-64
2022/03/19 06:03:39;;;;;;;70.13;26.30;;;4.70;99.70;;;;;;5032106;28;20465;-63
2022/03/19 06:06:06;;;;;;;69.50;27.10;;;4.80;99.70;;;;;;5031961;28;20449;-63
2022/03/19 06:08:32;;;;;;;77.90;29.07;;;4.80;99.70;;;;;;5032086;28;20484;-62
2022/03/19 06:10:59;;;;;;;66.63;27.27;;;4.80;99.70;;;;;;5032095;28;20495;-65
2022/03/19 06:13:27;;;;;;;76.30;28.37;;;4.80;99.70;;;;;;5032216;28;20472;-64
2022/03/19 06:15:54;;;;;;;75.00;27.90;;;4.80;99.70;;;;;;5031707;28;20532;-65
2022/03/19 06:18:22;;;;;;;74.00;26.07;;;4.90;99.70;;;;;;5031712;28;20452;-63
2022/03/19 06:20:48;;;;;;;74.83;27.87;;;4.80;99.70;;;;;;5032058;28;20449;-64
2022/03/19 06:23:15;;;;;;;80.20;28.07;;;4.80;99.70;;;;;;5031607;28;20472;-63
2022/03/19 06:25:42;;;;;;;71.63;27.60;;;4.80;99.70;;;;;;5031659;28;20518;-63
2022/03/19 06:28:08;;;;;;;70.67;27.10;;;4.90;99.70;;;;;;5031701;28;20477;-64
2022/03/19 06:30:37;;;;;;;75.70;28.40;;;4.90;99.70;;;;;;5031783;28;20539;-63
2022/03/19 06:33:04;;;;;;;72.77;27.00;;;5.20;99.70;;;;;;5031683;28;20525;-63
2022/03/19 06:38:16;;;;;;;77.80;29.10;;;5.30;99.70;;;;;;5031840;28;20428;-64
2022/03/19 06:40:43;;;;;;;67.27;27.10;;;5.40;99.70;;;;;;5031581;28;20967;-63
2022/03/19 06:43:10;;;;;;;71.00;26.20;;;5.30;99.70;;;;;;5031868;28;20847;-62
2022/03/19 06:45:37;;;;;;;77.03;27.33;;;5.20;99.70;;;;;;5030714;28;20440;-64
2022/03/19 06:48:04;;;;;;;72.13;27.70;;;5.30;99.70;;;;;;5031762;28;20576;-63
2022/03/19 06:50:32;;;;;;;71.93;27.80;;;5.40;99.70;;;;;;5032519;28;20445;-63
2022/03/19 06:52:59;;;;;;;74.20;27.37;;;5.60;99.70;;;;;;5031263;28;20469;-61
2022/03/19 06:55:26;;;;;;;68.13;26.53;;;5.60;99.70;;;;;;5031099;28;20723;-60
2022/03/19 06:57:53;;;;;;;66.67;26.70;;;5.70;99.70;;;;;;5030731;28;20444;-62
2022/03/19 07:00:20;;;;;;;67.50;27.43;;;5.80;99.70;;;;;;5031320;28;20487;-62
2022/03/19 07:02:47;;;;;;;73.20;27.97;;;5.90;99.70;;;;;;5031352;28;20445;-65
2022/03/19 07:05:18;;;;;;;69.03;26.43;;;5.90;99.70;;;;;;5031039;28;20498;-63
2022/03/19 07:07:46;;;;;;;69.30;28.27;;;6.10;99.70;;;;;;5031142;28;20488;-62
2022/03/19 07:10:13;;;;;;;68.43;26.80;;;6.10;99.70;;;;;;5031344;28;20467;-64
2022/03/19 07:12:43;;;;;;;69.20;26.80;;;6.20;99.70;;;;;;5031364;28;20498;-62
2022/03/19 07:15:12;;;;;;;67.90;27.67;;;6.10;99.70;;;;;;5030038;28;20526;-65
2022/03/19 07:17:39;;;;;;;68.20;27.10;;;6.50;99.70;;;;;;5030298;28;20498;-61
2022/03/19 07:20:07;;;;;;;68.30;27.60;;;6.90;99.70;;;;;;5031163;28;20472;-62
2022/03/19 07:22:48;;;;;;;63.70;26.40;;;7.70;99.70;;;;;;5031004;28;20455;-63
2022/03/19 07:25:15;;;;;;;63.83;26.40;;;8.00;99.70;;;;;;5030761;28;20463;-61
2022/03/19 07:27:42;;;;;;;65.87;25.87;;;8.40;99.70;;;;;;5030110;28;20531;-62
2022/03/19 07:30:10;;;;;;;63.13;25.97;;;8.80;99.70;;;;;;5030644;28;20455;-61
2022/03/19 07:32:37;;;;;;;62.23;25.40;;;8.60;99.70;;;;;;5030869;28;20828;-61
2022/03/19 07:35:04;;;;;;;60.93;26.27;;;8.60;99.70;;;;;;5030357;28;20449;-62
2022/03/19 07:37:31;;;;;;;64.97;26.70;;;9.40;99.70;;;;;;5030287;28;20445;-62
2022/03/19 07:40:00;;;;;;;56.13;26.17;;;9.50;99.70;;;;;;5030370;28;20475;-61
2022/03/19 07:42:26;;;;;;;63.60;25.90;;;10.00;99.70;;;;;;5030663;28;20459;-60
2022/03/19 07:44:53;;;;;;;56.70;25.67;;;10.10;99.70;;;;;;5029855;28;20460;-62
2022/03/19 07:47:20;;;;;;;59.43;25.03;;;10.10;99.70;;;;;;5030098;28;20221;-61
2022/03/19 07:49:46;;;;;;;57.57;26.43;;;9.50;99.70;;;;;;5030349;28;20480;-59
2022/03/19 07:52:14;;;;;;;64.47;27.43;;;9.10;99.70;;;;;;5030370;28;20448;-63
2022/03/19 07:54:41;;;;;;;60.53;24.73;;;8.80;99.70;;;;;;5030866;28;21423;-61
2022/03/19 07:57:10;;;;;;;55.53;24.90;;;8.60;99.70;;;;;;5029369;28;20668;-62
2022/03/19 07:59:37;;;;;;;59.13;23.77;;;8.20;99.70;;;;;;5029715;28;20511;-62
2022/03/19 08:02:05;;;;;;;55.63;24.30;;;8.10;99.70;;;;;;5030504;28;20519;-62
2022/03/19 08:04:32;;;;;;;57.37;24.63;;;8.40;99.70;;;;;;5030739;28;20472;-60
2022/03/19 08:06:58;;;;;;;57.03;23.87;;;9.10;99.70;;;;;;5029748;28;20452;-63
2022/03/19 08:09:25;;;;;;;56.43;24.40;;;9.40;99.40;;;;;;5032748;28;20476;-61
2022/03/19 08:11:52;;;;;;;55.93;24.20;;;10.00;97.40;;;;;;5034218;28;20449;-62
2022/03/19 08:14:21;;;;;;;57.87;24.07;;;9.80;97.90;;;;;;5034032;28;20475;-64
2022/03/19 08:16:48;;;;;;;57.97;23.70;;;9.60;96.70;;;;;;5033265;28;20471;-62
2022/03/19 08:19:15;;;;;;;55.07;23.70;;;9.50;98.10;;;;;;5032784;28;20528;-61
2022/03/19 08:21:43;;;;;;;51.67;23.30;;;9.70;96.80;;;;;;5034032;28;20444;-63
2022/03/19 08:24:10;;;;;;;51.53;22.87;;;9.60;96.60;;;;;;5033976;28;20825;-62
2022/03/19 08:26:37;;;;;;;57.30;24.77;;;10.00;96.50;;;;;;5033286;28;20531;-63
2022/03/19 08:29:04;;;;;;;52.70;23.53;;;10.20;95.80;;;;;;5033618;28;20503;-63
2022/03/19 08:31:33;;;;;;;54.20;24.10;;;10.10;95.50;;;;;;5033791;28;20870;-61
2022/03/19 08:34:00;;;;;;;53.17;23.00;;;10.30;94.90;;;;;;5033657;28;20522;-62
2022/03/19 08:36:26;;;;;;;46.90;22.27;;;10.20;94.00;;;;;;5032205;28;20456;-63
2022/03/19 08:41:37;;;;;;;57.10;22.67;;;10.30;93.10;;;;;;5050609;28;20522;-62
2022/03/19 08:44:05;;;;;;;48.63;22.70;;;10.00;93.30;;;;;;5052665;28;20470;-60
2022/03/19 08:46:33;;;;;;;48.37;21.90;;;9.50;94.40;;;;;;5039036;28;20451;-60
2022/03/19 08:49:00;;;;;;;51.70;23.00;;;9.70;95.40;;;;;;5053007;28;20506;-60
2022/03/19 08:51:42;;;;;;;47.37;19.87;;;10.30;94.00;;;;;;5034983;28;20448;-58
2022/03/19 08:54:10;;;;;;;51.20;20.77;;;10.70;91.80;;;;;;5028680;28;20476;-55
2022/03/19 08:56:37;;;;;;;49.97;21.80;;;10.50;92.30;;;;;;5041121;28;20456;-58
2022/03/19 08:59:05;;;;;;;46.90;21.87;;;10.50;92.20;;;;;;5032842;28;20535;-60
2022/03/19 09:01:33;;;;;;;44.10;20.57;;;10.50;91.50;;;;;;5033555;28;20448;-62
2022/03/19 09:04:00;;;;;;;45.90;20.53;;;10.70;91.10;;;;;;5033044;28;20475;-61
2022/03/19 09:06:27;;;;;;;46.70;21.07;;;11.40;89.60;;;;;;5032500;28;20453;-59
2022/03/19 09:08:54;;;;;;;47.97;21.07;;;11.10;88.90;;;;;;5031084;28;20488;-59
2022/03/19 09:11:22;;;;;;;45.30;21.40;;;10.20;90.50;;;;;;5022859;28;20548;-61
2022/03/19 09:13:50;;;;;;;51.50;22.57;;;10.00;92.00;;;;;;5044545;28;20503;-63
2022/03/19 09:16:17;;;;;;;49.97;20.37;;;9.60;92.40;;;;;;5052807;28;20452;-59
2022/03/19 09:18:45;;;;;;;53.13;21.60;;;9.60;93.60;;;;;;5052965;28;20439;-57
2022/03/19 09:21:12;;;;;;;49.63;21.57;;;9.70;92.90;;;;;;5049375;28;20449;-58
2022/03/19 09:23:39;;;;;;;48.27;21.53;;;10.20;93.00;;;;;;5033323;28;20571;-61
2022/03/19 09:26:06;;;;;;;52.10;22.53;;;10.50;92.20;;;;;;5032324;28;20449;-60
2022/03/19 09:28:33;;;;;;;49.87;22.27;;;10.90;91.90;;;;;;5032829;28;20481;-61
2022/03/19 09:30:59;;;;;;;48.60;22.50;;;10.70;91.00;;;;;;5033378;28;20483;-59
2022/03/19 09:33:26;;;;;;;51.90;22.10;;;11.20;90.20;;;;;;5027751;28;21064;-63
2022/03/19 09:35:54;;;;;;;48.73;21.10;;;11.90;88.30;;;;;;5047447;28;20448;-62
2022/03/19 09:38:21;;;;;;;51.63;22.60;;;12.60;87.60;;;;;;5052314;28;20448;-62
2022/03/19 09:40:48;;;;;;;50.63;23.13;;;13.20;85.70;;;;;;5037016;28;20523;-61
2022/03/19 09:43:15;;;;;;;51.17;22.97;;;13.80;84.80;;;;;;5028244;28;20900;-62
2022/03/19 09:45:42;;;;;;;50.40;23.17;;;14.10;84.90;;;;;;5033167;28;20448;-59
2022/03/19 09:48:09;;;;;;;54.67;24.43;;;14.60;83.50;;;;;;5030583;28;20452;-62
2022/03/19 09:50:36;;;;;;;51.17;24.00;;;14.80;82.30;;;;;;5032442;28;20452;-63
2022/03/19 09:53:05;;;;;;;48.50;23.67;;;14.70;83.20;;;;;;5032306;28;20472;-60
2022/03/19 09:55:34;;;;;;;52.07;24.50;;;14.40;81.80;;;;;;5039272;28;20451;-60
2022/03/19 09:58:03;;;;;;;51.33;23.83;;;14.10;83.60;;;;;;5039430;28;20467;-58
2022/03/19 10:00:30;;;;;;;50.47;24.53;;;14.20;84.30;;;;;;5044658;28;20893;-62
2022/03/19 10:02:57;;;;;;;51.87;24.80;;;13.70;84.50;;;;;;5031260;28;20472;-58
2022/03/19 10:10:55;;;;;;;52.73;23.30;;;11.90;88.20;;;;;;5040060;28;20542;-61
2022/03/19 10:13:24;;;;;;;52.80;23.87;;;11.30;89.80;;;;;;5033012;28;20493;-64
2022/03/19 10:15:50;;;;;;;51.00;23.13;;;11.20;90.80;;;;;;5031322;28;20651;-64
2022/03/19 10:18:17;;;;;;;51.67;22.67;;;10.90;90.40;;;;;;5031818;28;20444;-62
2022/03/19 10:20:44;;;;;;;52.70;23.40;;;10.90;91.80;;;;;;5029951;28;20459;-63
2022/03/19 10:23:12;;;;;;;54.37;23.80;;;10.90;91.70;;;;;;5029107;28;20867;-64
2022/03/19 10:25:39;;;;;;;56.87;24.63;;;10.90;91.90;;;;;;5020825;28;20468;-60
2022/03/19 10:28:08;;;;;;;53.03;22.63;;;11.00;92.50;;;;;;5029767;28;20546;-61
2022/03/19 10:30:37;;;;;;;52.23;23.93;;;10.70;91.20;;;;;;5019814;28;21084;-63
2022/03/19 10:33:04;;;;;;;58.30;25.20;;;10.70;92.60;;;;;;5032965;28;20993;-61
2022/03/19 10:35:32;;;;;;;63.43;25.80;;;10.70;92.60;;;;;;5025590;28;20448;-62
2022/03/19 10:38:01;;;;;;;54.23;23.10;;;10.70;93.80;;;;;;5029839;28;20771;-64
2022/03/19 10:40:40;;;;;;;60.70;23.97;;;10.70;92.90;;;;;;5025946;28;20460;-63
2022/03/19 10:43:08;;;;;;;56.20;24.53;;;10.50;93.30;;;;;;5030302;28;20507;-60
2022/03/19 10:45:42;;;;;;;61.10;25.77;;;10.40;94.00;;;;;;5029505;28;20568;-61
2022/03/19 10:48:11;;;;;;;55.40;24.20;;;10.40;94.60;;;;;;5030361;28;20495;-63
2022/03/19 10:50:40;;;;;;;58.07;25.60;;;10.30;94.20;;;;;;5030630;28;20888;-62
2022/03/19 10:53:07;;;;;;;63.17;25.87;;;10.20;94.80;;;;;;5045147;28;20463;-62
2022/03/19 10:55:34;;;;;;;55.47;23.60;;;10.30;95.10;;;;;;5049741;28;20922;-58
2022/03/19 10:58:02;;;;;;;70.67;24.00;;;10.20;95.20;;;;;;5043999;28;20441;-61
2022/03/19 11:00:29;;;;;;;55.73;24.83;;;10.30;95.30;;;;;;5035222;28;20468;-62
2022/03/19 11:03:00;;;;;;;55.57;22.90;;;10.30;95.60;;;;;;5036318;28;20464;-59
2022/03/19 11:05:33;;;;;;;50.10;20.27;;;10.30;94.50;;;;;;5039902;28;20873;-59
2022/03/19 11:08:02;;;;;;;50.77;21.07;;;10.40;93.90;;;;;;5041792;28;20439;-59
2022/03/19 11:10:30;;;;;;;43.80;19.47;;;10.30;92.60;;;;;;5042132;28;20476;-56
2022/03/19 11:12:59;;;;;;;38.60;17.60;;;10.50;92.80;;;;;;5041210;28;20464;-61
2022/03/19 11:15:33;;;;;;;37.40;17.20;;;10.50;92.10;;;;;;5043731;28;20742;-60
2022/03/19 11:18:04;;;;;;;38.80;17.30;;;10.60;91.00;;;;;;5033997;28;20445;-58
2022/03/19 11:20:31;;;;;;;43.70;17.10;;;10.60;90.80;;;;;;5036828;28;20498;-62
2022/03/19 11:23:01;;;;;;;41.63;16.50;;;10.70;91.00;;;;;;5041876;28;20464;-60
2022/03/19 11:25:36;;;;;;;37.67;15.83;;;10.70;90.50;;;;;;5040085;28;20439;-58
2022/03/19 11:28:06;;;;;;;31.90;13.67;;;10.70;89.60;;;;;;5040865;28;20455;-58
2022/03/19 11:30:36;;;;;;;31.70;14.10;;;10.70;87.80;;;;;;5036181;28;20483;-60
2022/03/19 11:33:08;;;;;;;31.97;13.43;;;10.70;87.60;;;;;;5039571;28;20472;-59
2022/03/19 11:35:36;;;;;;;31.90;13.40;;;10.80;86.60;;;;;;5037250;28;20445;-60
2022/03/19 11:38:06;;;;;;;31.07;12.50;;;10.90;86.70;;;;;;5037742;28;20452;-59
2022/03/19 11:40:35;;;;;;;31.07;12.23;;;10.90;87.20;;;;;;5036362;28;20440;-56
2022/03/19 11:43:04;;;;;;;28.80;12.60;;;11.00;86.60;;;;;;5039491;28;20470;-57
2022/03/19 11:45:40;;;;;;;33.50;13.70;;;11.10;86.90;;;;;;5039154;28;20475;-58
2022/03/19 11:48:38;;;;;;;29.00;13.53;;;10.90;87.00;;;;;;5043443;28;20943;-62
2022/03/19 11:51:31;;;;;;;24.13;12.00;;;11.10;88.20;;;;;;5000289;28;20480;-62
2022/03/19 11:53:59;;;;;;;29.13;12.63;;;11.30;88.20;;;;;;5042255;28;20871;-59
2022/03/19 11:56:28;;;;;;;30.80;13.30;;;11.20;88.10;;;;;;5044693;28;20512;-60
2022/03/19 11:58:56;;;;;;;31.60;13.73;;;11.30;89.30;;;;;;5042807;28;20448;-60
2022/03/19 12:01:49;;;;;;;31.10;13.07;;;11.20;88.80;;;;;;5046372;28;20463;-60
2022/03/19 12:04:17;;;;;;;30.77;12.97;;;11.30;89.30;;;;;;5041858;28;20492;-63
2022/03/19 12:06:54;;;;;;;30.40;13.17;;;11.30;88.50;;;;;;5043416;28;20445;-63
2022/03/19 12:09:32;;;;;;;29.17;13.37;;;11.10;88.40;;;;;;5040933;28;21057;-60
2022/03/19 12:12:22;;;;;;;28.60;12.50;;;10.80;89.60;;;;;;5040345;28;20444;-61
2022/03/19 12:14:49;;;;;;;30.53;14.33;;;10.70;90.60;;;;;;5039771;28;20489;-62
2022/03/19 12:17:20;;;;;;;31.97;13.20;;;10.90;92.00;;;;;;5044854;28;20506;-60
2022/03/19 12:19:53;;;;;;;27.77;11.57;;;11.00;90.50;;;;;;5040304;28;20539;-63
2022/03/19 12:22:28;;;;;;;26.37;10.60;;;10.60;87.60;;;;;;5041898;28;20456;-61
2022/03/19 12:25:05;;;;;;;23.10;11.27;;;10.40;88.40;;;;;;5042735;28;20463;-62
2022/03/19 12:27:32;;;;;;;27.73;10.97;;;10.40;89.30;;;;;;5044716;28;20450;-58
2022/03/19 12:29:59;;;;;;;24.97;11.13;;;10.40;90.30;;;;;;5036291;28;20483;-63
2022/03/19 12:32:27;;;;;;;27.83;11.40;;;10.50;89.70;;;;;;5032142;28;20455;-60
2022/03/19 12:34:58;;;;;;;32.63;10.87;;;10.50;89.50;;;;;;5036407;28;20561;-59
2022/03/19 12:37:25;;;;;;;26.03;10.33;;;10.40;88.80;;;;;;5043682;28;20462;-64
2022/03/19 12:39:58;;;;;;;24.17;10.87;;;10.30;87.40;;;;;;5038489;28;20957;-59
2022/03/19 12:42:30;;;;;;;24.17;10.00;;;10.30;87.20;;;;;;5025479;28;20468;-58
2022/03/19 12:44:59;;;;;;;22.67;9.40;;;10.30;86.80;;;;;;5038153;28;20463;-59
2022/03/19 12:47:27;;;;;;;20.90;9.63;;;10.50;86.70;;;;;;5044481;28;20448;-62
2022/03/19 12:49:55;;;;;;;23.43;10.50;;;10.60;86.00;;;;;;5045116;28;20480;-63
2022/03/19 12:52:23;;;;;;;23.47;9.77;;;10.80;87.10;;;;;;5036580;28;20974;-66
2022/03/19 12:54:55;;;;;;;23.50;9.50;;;11.00;86.00;;;;;;5040734;28;20921;-59
2022/03/19 12:57:24;;;;;;;22.40;9.17;;;11.10;86.20;;;;;;5046602;28;20459;-60
2022/03/19 12:59:52;;;;;;;24.03;9.80;;;10.90;84.20;;;;;;5045333;28;20436;-58